< < Back
Terminal Aerodrome Forecast


Current Version              Previous Versions:   1  2  3  4  5  6  7  8  9  

Terminal Aerodrome Forecast

374
FTUS44 KOHX 271700
TAFCSV
TAF
KCSV 271720Z 2718/2818 26012G21KT P6SM SCT030
     FM272000 26012G20KT P6SM BKN040
     FM280100 26009G18KT P6SM VCTS BKN040CB BKN250
      TEMPO 2803/2805 3SM -TSRA BR BKN030CB BKN100 OVC250
     FM280600 29004KT P6SM BKN060
     FM281300 31008G15KT P6SM SCT250=

Latest METAR

508
SAUS70 KWBC 280400 RRA
MTRCSV
METAR KCSV 280353Z AUTO 25014G28KT 3SM -TSRA SCT019 BKN044 OVC100 24/21
A2996 RMK AO2 PK WND 26028/0351 LTG DSNT ALQDS TSB38 SLP120
P0017 T02390206


USA.gov is the U.S. government's official web portal to all federal, state and local government web resources and services.